createdAt,value
2022-12-23T00:03:59.757Z,9.9
2022-12-23T00:14:00.622Z,10
2022-12-23T00:24:00.924Z,10
2022-12-23T00:34:01.745Z,10
2022-12-23T00:44:02.300Z,10
2022-12-23T00:54:03.208Z,9.9
2022-12-23T01:04:04.046Z,9.9
2022-12-23T01:24:04.463Z,9.8
2022-12-23T01:34:05.085Z,9.9
2022-12-23T01:44:05.276Z,9.9
2022-12-23T01:54:06.071Z,9.9
2022-12-23T02:04:07.022Z,9.9
2022-12-23T02:14:07.878Z,9.9
2022-12-23T02:24:08.495Z,9.9
2022-12-23T02:34:08.687Z,9.9
2022-12-23T02:44:09.432Z,9.9
2022-12-23T02:54:09.755Z,9.9
2022-12-23T03:04:10.676Z,9.9
2022-12-23T03:14:11.440Z,9.9
2022-12-23T03:24:12.446Z,10
2022-12-23T03:34:12.801Z,10
2022-12-23T03:44:12.940Z,10
2022-12-23T03:54:13.304Z,10
2022-12-23T04:04:14.276Z,10
2022-12-23T04:14:14.617Z,9.9
2022-12-23T05:34:18.996Z,9.9
2022-12-23T05:54:19.557Z,9.9
2022-12-23T06:24:21.800Z,9.9
2022-12-23T06:34:21.805Z,9.9
2022-12-23T06:54:23.381Z,9.8
2022-12-23T07:04:23.911Z,9.8
2022-12-23T07:14:24.399Z,9.8
2022-12-23T07:24:24.685Z,9.8
2022-12-23T07:34:24.821Z,9.7
2022-12-23T07:54:25.420Z,9.7
2022-12-23T08:04:26.121Z,9.7
2022-12-23T08:24:27.300Z,9.7
2022-12-23T08:44:28.675Z,9.7
2022-12-23T09:04:29.954Z,9.7
2022-12-23T09:14:31.072Z,9.7
2022-12-23T09:24:31.440Z,9.7
2022-12-23T09:34:31.819Z,9.7
2022-12-23T09:44:32.549Z,9.6
2022-12-23T09:54:33.044Z,9.6
2022-12-23T10:14:35.278Z,9.5
2022-12-23T10:24:36.073Z,9.6
2022-12-23T10:54:37.520Z,9.6
2022-12-23T11:04:38.615Z,9.7
2022-12-23T11:24:43.073Z,9.9
2022-12-23T11:34:40.000Z,9.9
2022-12-23T11:44:40.419Z,9.9
2022-12-23T11:54:40.640Z,9.9
2022-12-23T12:04:41.179Z,9.8
2022-12-23T12:14:41.432Z,9.8
2022-12-23T12:24:42.345Z,9.8
2022-12-23T12:34:42.799Z,9.8
2022-12-23T12:44:43.226Z,9.7
2022-12-23T12:54:43.757Z,9.6
2022-12-23T13:04:44.515Z,9.6
2022-12-23T13:24:45.755Z,9.5
2022-12-23T13:34:46.776Z,9.4
2022-12-23T13:44:47.653Z,9.4
2022-12-23T13:54:48.372Z,9.4
2022-12-23T14:14:48.819Z,9.5
2022-12-23T14:24:49.928Z,9.5
2022-12-23T14:34:50.707Z,9.4
2022-12-23T14:44:51.487Z,9.5
2022-12-23T14:55:20.917Z,9.4
2022-12-23T15:04:52.819Z,9.4
2022-12-23T15:14:53.100Z,9.4
2022-12-23T15:24:54.175Z,9.3
2022-12-23T15:34:54.449Z,9.2
2022-12-23T15:44:54.575Z,9.1
2022-12-23T15:54:55.616Z,9.1
2022-12-23T16:04:56.011Z,9.1
2022-12-23T16:14:56.141Z,9.1
2022-12-23T16:24:57.004Z,9.1
2022-12-23T16:34:58.018Z,9.1
2022-12-23T16:44:58.198Z,9.1
2022-12-23T16:54:58.456Z,9.1
2022-12-23T17:04:58.847Z,9.3
2022-12-23T17:14:59.638Z,9.3
2022-12-23T17:34:59.982Z,9.6
2022-12-23T17:45:00.231Z,9.8
2022-12-23T17:55:01.096Z,10
2022-12-23T18:05:02.026Z,10.3
2022-12-23T18:15:02.587Z,10.7
2022-12-23T18:25:03.075Z,10.9
2022-12-23T18:35:03.653Z,11
2022-12-23T18:55:04.874Z,11.1
2022-12-23T19:05:05.836Z,11.1
2022-12-23T19:15:06.347Z,11.1
2022-12-23T19:25:07.008Z,11.1
2022-12-23T19:35:06.893Z,11.2
2022-12-23T19:45:07.904Z,11.3
2022-12-23T19:55:08.314Z,11.3
2022-12-23T20:05:09.223Z,11.2
2022-12-23T20:15:09.495Z,11.1
2022-12-23T20:25:10.163Z,11.1
2022-12-23T20:35:11.228Z,11.1
2022-12-23T20:55:11.661Z,11
2022-12-23T21:05:12.510Z,10.9
2022-12-23T21:15:12.618Z,10.9
2022-12-23T21:25:13.597Z,10.9
2022-12-23T21:45:14.793Z,10.8
2022-12-23T21:55:15.687Z,10.6
2022-12-23T22:05:15.932Z,10.6
2022-12-23T22:15:17.069Z,10.6
2022-12-23T22:25:18.033Z,10.6
2022-12-23T22:35:18.453Z,10.6
2022-12-23T22:45:18.630Z,10.6
2022-12-23T23:05:19.702Z,10.3
2022-12-23T23:15:20.422Z,10.3
2022-12-23T23:25:21.642Z,10.3
2022-12-23T23:35:22.020Z,10.3
2022-12-23T23:45:22.910Z,10.3
2022-12-23T23:55:23.107Z,10.2
